createdAt,value
2019-05-06T00:00:56.459Z,0.00
2019-05-06T00:01:50.942Z,0.00
2019-05-06T00:02:50.951Z,0.00
2019-05-06T00:03:50.957Z,0.00
2019-05-06T00:04:50.972Z,0.00
2019-05-06T00:05:50.977Z,0.00
2019-05-06T00:06:50.988Z,0.00
2019-05-06T00:07:51.005Z,0.00
2019-05-06T00:08:51.011Z,0.00
2019-05-06T00:09:51.027Z,0.00
2019-05-06T00:10:51.035Z,0.00
2019-05-06T00:11:51.123Z,0.00
2019-05-06T00:12:51.052Z,0.00
2019-05-06T00:13:51.062Z,0.00
2019-05-06T00:14:51.078Z,0.00
2019-05-06T00:15:51.080Z,0.00
2019-05-06T00:16:51.223Z,0.00
2019-05-06T00:17:51.208Z,0.00
2019-05-06T00:18:51.122Z,0.00
2019-05-06T00:19:51.131Z,0.00
2019-05-06T00:20:51.135Z,0.00
2019-05-06T00:21:51.154Z,0.00
2019-05-06T00:22:51.598Z,0.00
2019-05-06T00:23:51.638Z,0.00
2019-05-06T00:24:51.177Z,0.00
2019-05-06T00:25:53.424Z,0.00
2019-05-06T00:26:55.015Z,0.00
2019-05-06T00:28:51.321Z,0.00
2019-05-06T00:29:51.455Z,0.00
2019-05-06T00:30:51.666Z,0.00
2019-05-06T00:31:53.521Z,0.00
2019-05-06T00:32:51.258Z,0.00
2019-05-06T00:33:51.263Z,0.00
2019-05-06T00:34:51.274Z,0.00
2019-05-06T00:35:51.290Z,0.00
2019-05-06T00:36:51.301Z,0.00
2019-05-06T00:37:53.547Z,0.00
2019-05-06T00:38:51.347Z,0.00
2019-05-06T00:39:51.324Z,0.00
2019-05-06T00:40:51.332Z,0.00
2019-05-06T00:41:51.356Z,0.00
2019-05-06T00:42:51.381Z,0.00
2019-05-06T00:43:51.365Z,0.00
2019-05-06T00:44:53.615Z,0.00
2019-05-06T00:45:53.179Z,0.00
2019-05-06T00:46:51.401Z,0.00
2019-05-06T00:47:53.497Z,0.00
2019-05-06T00:48:51.420Z,0.00
2019-05-06T00:49:51.434Z,0.00
2019-05-06T00:50:53.459Z,0.00
2019-05-06T00:51:51.477Z,0.00
2019-05-06T00:52:51.458Z,0.00
2019-05-06T00:53:51.470Z,0.00
2019-05-06T00:54:51.486Z,0.00
2019-05-06T00:56:53.990Z,0.00
2019-05-06T00:57:54.311Z,0.00
2019-05-06T00:58:54.305Z,0.00
2019-05-06T00:59:53.717Z,0.00
2019-05-06T01:00:53.286Z,0.00
2019-05-06T01:01:53.745Z,0.00
2019-05-06T01:02:51.555Z,0.00
2019-05-06T01:03:53.578Z,0.00
2019-05-06T01:04:51.582Z,0.00
2019-05-06T01:05:51.587Z,0.00
2019-05-06T01:06:51.708Z,0.00
2019-05-06T01:07:51.608Z,0.00
2019-05-06T01:08:51.616Z,0.00
2019-05-06T01:09:51.626Z,0.00
2019-05-06T01:10:51.644Z,0.00
2019-05-06T01:11:51.650Z,0.00
2019-05-06T01:12:51.672Z,0.00
2019-05-06T01:13:51.754Z,0.00
2019-05-06T01:14:51.684Z,0.00
2019-05-06T01:16:51.707Z,0.00
2019-05-06T01:17:53.745Z,0.00
2019-05-06T01:18:54.014Z,0.00
2019-05-06T01:19:53.951Z,0.00
2019-05-06T01:20:54.021Z,0.00
2019-05-06T01:21:53.880Z,0.00
2019-05-06T01:22:51.799Z,0.00
2019-05-06T01:23:51.874Z,0.00
2019-05-06T01:24:51.951Z,0.00
2019-05-06T01:25:51.825Z,0.00
2019-05-06T01:26:53.700Z,0.00
2019-05-06T01:27:53.911Z,0.00
2019-05-06T01:28:51.842Z,0.00
2019-05-06T01:29:51.856Z,0.00
2019-05-06T01:30:53.565Z,0.00
2019-05-06T01:31:54.184Z,0.00
2019-05-06T01:32:51.885Z,0.00
2019-05-06T01:33:53.552Z,0.00
2019-05-06T01:34:53.718Z,0.00
2019-05-06T01:35:54.066Z,0.00
2019-05-06T01:36:51.905Z,0.00
2019-05-06T01:37:51.915Z,0.00
2019-05-06T01:38:53.537Z,0.00
2019-05-06T01:39:53.725Z,0.00
2019-05-06T01:40:51.939Z,0.00
2019-05-06T01:41:53.702Z,0.00
2019-05-06T01:42:54.016Z,0.00
2019-05-06T01:43:51.970Z,0.00
2019-05-06T01:44:53.873Z,0.00
2019-05-06T01:45:53.647Z,0.00
2019-05-06T01:46:54.036Z,0.00
2019-05-06T01:47:52.010Z,0.00
2019-05-06T01:48:53.607Z,0.00
2019-05-06T01:49:53.727Z,0.00
2019-05-06T01:50:53.853Z,0.00
2019-05-06T01:51:52.047Z,0.00
2019-05-06T01:52:53.987Z,0.00
2019-05-06T01:55:52.093Z,0.00
2019-05-06T01:56:53.783Z,0.00
2019-05-06T01:57:54.405Z,0.00
2019-05-06T01:58:53.618Z,0.00
2019-05-06T01:59:53.911Z,0.00
2019-05-06T02:00:54.061Z,0.00
2019-05-06T02:01:58.118Z,0.00
2019-05-06T02:02:54.598Z,0.00
2019-05-06T02:03:53.833Z,0.00
2019-05-06T02:04:54.051Z,0.00
2019-05-06T02:05:53.958Z,0.00
2019-05-06T02:06:54.346Z,0.00
2019-05-06T02:07:52.206Z,0.00
2019-05-06T02:08:54.026Z,0.00
2019-05-06T02:09:54.203Z,0.00
2019-05-06T02:10:54.394Z,0.00
2019-05-06T02:11:53.642Z,0.00
2019-05-06T02:12:54.105Z,0.00
2019-05-06T02:13:53.819Z,0.00
2019-05-06T02:14:54.170Z,0.00
2019-05-06T02:15:54.620Z,0.00
2019-05-06T02:16:54.358Z,0.00
2019-05-06T02:17:52.314Z,0.00
2019-05-06T02:18:54.015Z,0.00
2019-05-06T02:19:54.445Z,0.00
2019-05-06T02:20:53.802Z,0.00
2019-05-06T02:21:54.262Z,0.00
2019-05-06T02:22:53.845Z,0.00
2019-05-06T02:23:53.529Z,0.00
2019-05-06T02:24:53.593Z,0.00
2019-05-06T02:25:53.946Z,0.00
2019-05-06T02:26:54.256Z,0.00
2019-05-06T02:27:54.160Z,0.00
2019-05-06T02:28:54.481Z,0.00
2019-05-06T02:29:54.317Z,0.00
2019-05-06T02:30:54.806Z,0.00
2019-05-06T02:31:56.609Z,0.00
2019-05-06T02:32:55.445Z,0.00
2019-05-06T02:33:55.878Z,0.00
2019-05-06T02:34:54.619Z,0.00
2019-05-06T02:35:55.008Z,0.00
2019-05-06T02:36:55.124Z,0.00
2019-05-06T02:37:54.905Z,0.00
2019-05-06T02:38:55.655Z,0.00
2019-05-06T02:39:53.378Z,0.00
2019-05-06T02:40:53.548Z,0.00
2019-05-06T02:41:54.958Z,0.00
2019-05-06T02:42:54.579Z,0.00
2019-05-06T02:43:54.141Z,0.00
2019-05-06T02:44:53.933Z,0.00
2019-05-06T02:45:53.230Z,0.00
2019-05-06T02:46:53.385Z,0.00
2019-05-06T02:47:53.853Z,0.00
2019-05-06T02:48:54.263Z,0.00
2019-05-06T02:49:53.528Z,0.00
2019-05-06T02:50:53.756Z,0.00
2019-05-06T02:51:53.522Z,0.00
2019-05-06T02:52:53.718Z,0.00
2019-05-06T02:53:53.829Z,0.00
2019-05-06T02:54:53.701Z,0.00
2019-05-06T02:55:53.256Z,0.00
2019-05-06T02:58:53.671Z,0.00
2019-05-06T02:59:55.249Z,0.00
2019-05-06T03:00:53.942Z,0.00
2019-05-06T03:01:53.935Z,0.00
2019-05-06T03:02:54.109Z,0.00
2019-05-06T03:03:53.759Z,0.00
2019-05-06T03:04:53.088Z,0.00
2019-05-06T03:05:53.409Z,0.00
2019-05-06T03:06:53.440Z,0.00
2019-05-06T03:07:57.067Z,4.00
2019-05-06T03:08:54.277Z,4.00
2019-05-06T03:09:53.443Z,4.00
2019-05-06T03:10:53.592Z,4.00
2019-05-06T03:12:53.818Z,4.00
2019-05-06T03:13:53.863Z,4.00
2019-05-06T03:14:53.442Z,4.00
2019-05-06T03:15:54.076Z,4.00
2019-05-06T03:16:53.980Z,4.00
2019-05-06T03:17:55.289Z,4.00
2019-05-06T03:18:53.485Z,4.00
2019-05-06T03:19:52.922Z,4.00
2019-05-06T03:20:53.401Z,4.00
2019-05-06T03:21:54.730Z,4.00
2019-05-06T03:22:54.417Z,0.00
2019-05-06T03:23:54.155Z,0.00
2019-05-06T03:24:54.438Z,4.00
2019-05-06T03:25:53.522Z,4.00
2019-05-06T03:26:56.757Z,4.00
2019-05-06T03:27:53.321Z,4.00
2019-05-06T03:29:53.873Z,4.00
2019-05-06T03:30:56.686Z,4.00
2019-05-06T03:31:56.419Z,8.00
2019-05-06T03:33:28.107Z,4.00
2019-05-06T03:34:17.138Z,8.00
2019-05-06T03:35:16.158Z,8.00
2019-05-06T03:36:05.249Z,8.00
2019-05-06T03:36:56.222Z,8.00
2019-05-06T03:37:53.510Z,8.00
2019-05-06T03:38:53.804Z,12.00
2019-05-06T03:39:53.264Z,12.00
2019-05-06T03:41:53.807Z,16.00
2019-05-06T03:42:53.984Z,20.00
2019-05-06T03:43:54.370Z,20.00
2019-05-06T03:44:53.551Z,24.00
2019-05-06T03:45:53.805Z,28.00
2019-05-06T03:46:53.990Z,28.00
2019-05-06T03:47:54.314Z,36.00
2019-05-06T03:48:53.210Z,36.00
2019-05-06T03:49:54.559Z,40.00
2019-05-06T03:50:55.894Z,48.00
2019-05-06T03:51:56.154Z,48.00
2019-05-06T03:52:56.213Z,56.00
2019-05-06T03:53:54.014Z,60.00
2019-05-06T03:54:53.856Z,68.00
2019-05-06T03:55:53.946Z,72.00
2019-05-06T03:56:53.817Z,80.00
2019-05-06T03:57:54.010Z,84.00
2019-05-06T03:58:53.855Z,96.00
2019-05-06T04:00:54.023Z,108.00
2019-05-06T04:01:53.587Z,116.00
2019-05-06T04:03:56.947Z,128.00
2019-05-06T04:04:56.379Z,140.00
2019-05-06T04:05:55.868Z,148.00
2019-05-06T04:06:53.925Z,156.00
2019-05-06T04:07:53.433Z,164.00
2019-05-06T04:08:53.484Z,176.00
2019-05-06T04:09:53.954Z,180.00
2019-05-06T04:10:53.979Z,188.00
2019-05-06T04:11:54.257Z,200.00
2019-05-06T04:13:53.859Z,216.00
2019-05-06T04:14:54.174Z,224.00
2019-05-06T04:15:53.943Z,232.00
2019-05-06T04:16:53.555Z,244.00
2019-05-06T04:17:54.145Z,252.00
2019-05-06T04:18:54.071Z,264.00
2019-05-06T04:19:53.634Z,272.00
2019-05-06T04:20:53.563Z,280.00
2019-05-06T04:21:53.536Z,288.00
2019-05-06T04:22:53.522Z,296.00
2019-05-06T04:23:53.758Z,304.00
2019-05-06T04:24:53.997Z,316.00
2019-05-06T04:25:53.566Z,324.00
2019-05-06T04:26:53.787Z,332.00
2019-05-06T04:27:54.040Z,344.00
2019-05-06T04:28:53.664Z,356.00
2019-05-06T04:30:54.909Z,376.00
2019-05-06T04:31:54.419Z,384.00
2019-05-06T04:34:08.519Z,400.00
2019-05-06T04:34:53.803Z,412.00
2019-05-06T04:35:54.207Z,432.00
2019-05-06T04:36:53.723Z,440.00
2019-05-06T04:37:54.099Z,444.00
2019-05-06T04:38:54.222Z,452.00
2019-05-06T04:39:53.791Z,456.00
2019-05-06T04:41:54.375Z,460.00
2019-05-06T04:42:53.742Z,468.00
2019-05-06T04:43:53.776Z,472.00
2019-05-06T04:44:53.750Z,476.00
2019-05-06T04:45:54.330Z,468.00
2019-05-06T04:46:54.592Z,456.00
2019-05-06T04:48:54.050Z,444.00
2019-05-06T04:49:53.786Z,424.00
2019-05-06T04:50:54.093Z,392.00
2019-05-06T04:51:54.315Z,364.00
2019-05-06T04:52:53.910Z,344.00
2019-05-06T04:53:53.940Z,316.00
2019-05-06T04:54:53.889Z,304.00
2019-05-06T04:55:54.215Z,304.00
2019-05-06T04:56:53.907Z,324.00
2019-05-06T04:57:54.020Z,340.00
2019-05-06T04:58:54.119Z,360.00
2019-05-06T05:00:53.888Z,396.00
2019-05-06T05:01:54.070Z,400.00
2019-05-06T05:02:54.938Z,404.00
2019-05-06T05:04:54.177Z,420.00
2019-05-06T05:05:53.967Z,424.00
2019-05-06T05:06:54.050Z,432.00
2019-05-06T05:09:54.254Z,448.00
2019-05-06T05:10:54.922Z,452.00
2019-05-06T05:11:54.447Z,460.00
2019-05-06T05:12:54.426Z,464.00
2019-05-06T05:14:54.387Z,472.00
2019-05-06T05:15:54.237Z,480.00
2019-05-06T05:16:55.566Z,492.00
2019-05-06T05:17:54.260Z,504.00
2019-05-06T05:18:54.281Z,508.00
2019-05-06T05:19:55.174Z,516.00
2019-05-06T05:20:54.078Z,528.00
2019-05-06T05:21:54.087Z,540.00
2019-05-06T05:22:54.100Z,548.00
2019-05-06T05:23:54.180Z,560.00
2019-05-06T05:25:54.867Z,580.00
2019-05-06T05:26:54.815Z,592.00
2019-05-06T05:27:54.199Z,600.00
2019-05-06T05:28:54.184Z,608.00
2019-05-06T05:30:54.178Z,620.00
2019-05-06T05:31:54.373Z,628.00
2019-05-06T05:32:54.549Z,636.00
2019-05-06T05:33:54.211Z,648.00
2019-05-06T05:34:54.893Z,664.00
2019-05-06T05:35:56.223Z,676.00
2019-05-06T05:36:54.232Z,684.00
2019-05-06T05:37:54.278Z,692.00
2019-05-06T05:38:54.270Z,700.00
2019-05-06T05:39:54.271Z,704.00
2019-05-06T05:40:54.296Z,708.00
2019-05-06T05:41:54.371Z,716.00
2019-05-06T05:42:54.305Z,720.00
2019-05-06T05:43:54.345Z,720.00
2019-05-06T05:44:54.318Z,728.00
2019-05-06T05:45:54.451Z,732.00
2019-05-06T05:46:54.418Z,740.00
2019-05-06T05:47:54.351Z,748.00
2019-05-06T05:48:55.538Z,748.00
2019-05-06T05:49:56.010Z,752.00
2019-05-06T05:51:07.462Z,760.00
2019-05-06T05:51:54.387Z,776.00
2019-05-06T05:52:54.411Z,788.00
2019-05-06T05:53:54.462Z,796.00
2019-05-06T05:54:55.621Z,808.00
2019-05-06T05:55:54.441Z,824.00
2019-05-06T05:56:54.640Z,840.00
2019-05-06T05:57:54.456Z,856.00
2019-05-06T05:58:54.469Z,872.00
2019-05-06T05:59:54.500Z,896.00
2019-05-06T06:00:54.484Z,916.00
2019-05-06T06:01:54.526Z,932.00
2019-05-06T06:02:55.013Z,956.00
2019-05-06T06:03:54.664Z,968.00
2019-05-06T06:04:57.504Z,980.00
2019-05-06T06:06:54.686Z,1008.00
2019-05-06T06:07:55.165Z,1016.00
2019-05-06T06:08:54.639Z,1024.00
2019-05-06T06:09:54.591Z,1032.00
2019-05-06T06:10:54.594Z,1048.00
2019-05-06T06:11:54.649Z,1068.00
2019-05-06T06:12:54.605Z,1084.00
2019-05-06T06:13:54.619Z,1096.00
2019-05-06T06:14:56.130Z,1096.00
2019-05-06T06:15:54.676Z,1108.00
2019-05-06T06:17:02.046Z,1116.00
2019-05-06T06:18:54.774Z,1136.00
2019-05-06T06:19:54.793Z,1156.00
2019-05-06T06:20:54.894Z,1172.00
2019-05-06T06:21:54.722Z,1192.00
2019-05-06T06:22:54.729Z,1224.00
2019-05-06T06:24:54.742Z,1288.00
2019-05-06T06:25:54.742Z,1320.00
2019-05-06T06:26:54.781Z,1360.00
2019-05-06T06:27:55.128Z,1404.00
2019-05-06T06:28:54.817Z,1444.00
2019-05-06T06:29:54.799Z,1480.00
2019-05-06T06:30:54.924Z,1508.00
2019-05-06T06:31:54.800Z,1536.00
2019-05-06T06:32:54.818Z,1564.00
2019-05-06T06:33:54.849Z,1588.00
2019-05-06T06:35:07.332Z,1612.00
2019-05-06T06:35:54.891Z,1636.00
2019-05-06T06:36:54.968Z,1660.00
2019-05-06T06:37:54.864Z,1684.00
2019-05-06T06:38:54.872Z,1712.00
2019-05-06T06:39:54.903Z,1732.00
2019-05-06T06:40:55.718Z,1736.00
2019-05-06T06:41:54.986Z,1732.00
2019-05-06T06:42:55.160Z,1728.00
2019-05-06T06:43:55.180Z,1724.00
2019-05-06T06:44:54.936Z,1732.00
2019-05-06T06:45:55.809Z,1768.00
2019-05-06T06:46:55.019Z,1816.00
2019-05-06T06:47:55.122Z,1860.00
2019-05-06T06:48:55.129Z,1952.00
2019-05-06T06:49:55.080Z,2084.00
2019-05-06T06:50:55.039Z,2176.00
2019-05-06T06:51:55.959Z,2388.00
2019-05-06T06:52:56.252Z,2492.00
2019-05-06T06:53:55.301Z,2456.00
2019-05-06T06:54:55.296Z,2792.00
2019-05-06T06:57:05.074Z,2304.00
2019-05-06T06:57:55.186Z,2220.00
2019-05-06T06:58:56.012Z,2236.00
2019-05-06T06:59:55.783Z,2148.00
2019-05-06T07:00:56.158Z,2132.00
2019-05-06T07:01:55.236Z,2096.00
2019-05-06T07:02:55.211Z,2076.00
2019-05-06T07:03:55.136Z,2060.00
2019-05-06T07:04:58.300Z,2076.00
2019-05-06T07:05:58.348Z,2156.00
2019-05-06T07:06:55.784Z,2228.00
2019-05-06T07:07:55.238Z,2316.00
2019-05-06T07:08:55.197Z,2424.00
2019-05-06T07:09:56.596Z,2568.00
2019-05-06T07:11:55.232Z,2892.00
2019-05-06T07:12:56.861Z,3628.00
2019-05-06T07:13:55.282Z,3196.00
2019-05-06T07:14:55.265Z,3060.00
2019-05-06T07:15:55.644Z,3100.00
2019-05-06T07:16:55.278Z,2784.00
2019-05-06T07:17:56.813Z,2800.00
2019-05-06T07:18:56.036Z,2792.00
2019-05-06T07:19:55.538Z,2896.00
2019-05-06T07:20:55.863Z,2832.00
2019-05-06T07:22:55.370Z,2852.00
2019-05-06T07:23:55.360Z,2900.00
2019-05-06T07:24:55.376Z,2900.00
2019-05-06T07:25:55.396Z,2940.00
2019-05-06T07:26:55.427Z,3024.00
2019-05-06T07:27:55.608Z,3332.00
2019-05-06T07:28:55.523Z,3020.00
2019-05-06T07:29:55.564Z,3056.00
2019-05-06T07:30:55.496Z,3016.00
2019-05-06T07:31:55.462Z,3008.00
2019-05-06T07:32:55.808Z,2984.00
2019-05-06T07:33:55.570Z,2972.00
2019-05-06T07:34:55.635Z,2996.00
2019-05-06T07:35:55.621Z,3060.00
2019-05-06T07:36:56.297Z,3092.00
2019-05-06T07:37:55.542Z,3088.00
2019-05-06T07:38:55.535Z,3060.00
2019-05-06T07:39:55.545Z,3044.00
2019-05-06T07:40:56.545Z,3048.00
2019-05-06T07:41:55.584Z,3056.00
2019-05-06T07:42:55.575Z,3084.00
2019-05-06T07:43:55.588Z,3092.00
2019-05-06T07:45:55.626Z,3060.00
2019-05-06T07:46:55.616Z,3012.00
2019-05-06T07:47:55.674Z,2940.00
2019-05-06T07:48:55.652Z,2864.00
2019-05-06T07:49:55.677Z,2840.00
2019-05-06T07:50:55.667Z,2896.00
2019-05-06T07:51:56.057Z,2996.00
2019-05-06T07:52:55.854Z,3496.00
2019-05-06T07:53:56.414Z,3508.00
2019-05-06T07:54:56.055Z,3448.00
2019-05-06T07:55:56.914Z,3560.00
2019-05-06T07:58:55.770Z,3464.00
2019-05-06T07:59:55.769Z,3376.00
2019-05-06T08:00:55.791Z,3392.00
2019-05-06T08:01:55.806Z,3468.00
2019-05-06T08:02:55.846Z,3416.00
2019-05-06T08:03:55.990Z,3492.00
2019-05-06T08:04:55.844Z,3316.00
2019-05-06T08:05:58.764Z,3320.00
2019-05-06T08:07:55.892Z,3296.00
2019-05-06T08:08:55.911Z,3268.00
2019-05-06T08:09:55.893Z,3268.00
2019-05-06T08:10:55.902Z,3412.00
2019-05-06T08:12:56.337Z,3320.00
2019-05-06T08:13:55.958Z,3428.00
2019-05-06T08:14:56.187Z,3148.00
2019-05-06T08:15:56.051Z,3184.00
2019-05-06T08:16:56.040Z,3296.00
2019-05-06T08:17:56.050Z,3380.00
2019-05-06T08:18:56.015Z,3524.00
2019-05-06T08:19:56.022Z,3736.00
2019-05-06T08:20:56.039Z,3828.00
2019-05-06T08:21:56.057Z,3764.00
2019-05-06T08:22:56.761Z,3892.00
2019-05-06T08:23:56.060Z,4180.00
2019-05-06T08:24:56.082Z,4244.00
2019-05-06T08:26:09.287Z,4212.00
2019-05-06T08:26:56.103Z,4356.00
2019-05-06T08:27:56.939Z,4632.00
2019-05-06T08:28:56.148Z,4348.00
2019-05-06T08:29:56.226Z,4312.00
2019-05-06T08:30:56.959Z,4312.00
2019-05-06T08:31:58.047Z,4180.00
2019-05-06T08:32:56.199Z,4052.00
2019-05-06T08:33:56.247Z,4008.00
2019-05-06T08:34:56.262Z,3556.00
2019-05-06T08:36:08.956Z,3372.00
2019-05-06T08:36:56.222Z,3148.00
2019-05-06T08:37:56.238Z,2844.00
2019-05-06T08:38:56.277Z,2536.00
2019-05-06T08:39:56.268Z,2316.00
2019-05-06T08:40:56.271Z,2280.00
2019-05-06T08:41:56.296Z,2648.00
2019-05-06T08:42:56.296Z,3644.00
2019-05-06T08:43:56.350Z,2648.00
2019-05-06T08:44:56.375Z,3996.00
2019-05-06T08:45:56.357Z,3712.00
2019-05-06T08:46:56.363Z,3544.00
2019-05-06T08:47:56.660Z,3384.00
2019-05-06T08:48:56.392Z,1596.00
2019-05-06T08:49:56.384Z,3268.00
2019-05-06T08:50:56.397Z,3252.00
2019-05-06T08:51:56.481Z,3224.00
2019-05-06T08:52:56.605Z,3256.00
2019-05-06T08:53:56.575Z,3300.00
2019-05-06T08:54:56.569Z,3312.00
2019-05-06T08:55:58.873Z,3332.00
2019-05-06T08:56:56.472Z,3372.00
2019-05-06T08:57:56.479Z,3316.00
2019-05-06T08:58:56.493Z,3412.00
2019-05-06T08:59:56.510Z,3468.00
2019-05-06T09:01:56.544Z,3540.00
2019-05-06T09:02:56.597Z,3588.00
2019-05-06T09:04:08.311Z,3592.00
2019-05-06T09:04:56.564Z,3664.00
2019-05-06T09:05:56.589Z,3684.00
2019-05-06T09:06:57.197Z,3680.00
2019-05-06T09:07:56.604Z,3728.00
2019-05-06T09:08:57.123Z,3788.00
2019-05-06T09:09:56.659Z,3796.00
2019-05-06T09:10:56.652Z,3776.00
2019-05-06T09:11:56.661Z,3908.00
2019-05-06T09:12:56.681Z,3980.00
2019-05-06T09:13:56.673Z,3984.00
2019-05-06T09:14:58.909Z,4072.00
2019-05-06T09:15:56.704Z,4168.00
2019-05-06T09:16:56.768Z,4220.00
2019-05-06T09:17:56.774Z,4372.00
2019-05-06T09:18:56.991Z,4320.00
2019-05-06T09:19:56.773Z,4168.00
2019-05-06T09:20:56.759Z,4148.00
2019-05-06T09:21:56.773Z,4136.00
2019-05-06T09:22:56.783Z,4088.00
2019-05-06T09:23:56.795Z,4116.00
2019-05-06T09:25:56.824Z,4092.00
2019-05-06T09:26:56.883Z,4020.00
2019-05-06T09:27:56.904Z,4012.00
2019-05-06T09:28:56.859Z,3976.00
2019-05-06T09:29:56.901Z,3948.00
2019-05-06T09:30:56.885Z,3896.00
2019-05-06T09:31:57.232Z,3628.00
2019-05-06T09:32:57.095Z,3840.00
2019-05-06T09:33:56.941Z,3808.00
2019-05-06T09:34:56.953Z,3780.00
2019-05-06T09:35:56.960Z,3748.00
2019-05-06T09:36:56.960Z,3780.00
2019-05-06T09:37:57.038Z,3716.00
2019-05-06T09:38:56.997Z,3684.00
2019-05-06T09:39:57.010Z,3708.00
2019-05-06T09:40:57.023Z,3624.00
2019-05-06T09:41:58.202Z,3612.00
2019-05-06T09:43:57.056Z,3604.00
2019-05-06T09:44:57.078Z,3636.00
2019-05-06T09:45:57.085Z,3700.00
2019-05-06T09:47:57.177Z,3744.00
2019-05-06T09:49:57.849Z,3528.00
2019-05-06T09:50:58.338Z,3288.00
2019-05-06T09:51:57.161Z,3476.00
2019-05-06T09:52:57.981Z,3980.00
2019-05-06T09:54:00.363Z,4016.00
2019-05-06T09:54:57.803Z,2948.00
2019-05-06T09:55:57.361Z,2668.00
2019-05-06T09:56:57.218Z,3812.00
2019-05-06T09:57:57.343Z,3920.00
2019-05-06T09:58:57.498Z,4052.00
2019-05-06T09:59:57.418Z,3664.00
2019-05-06T10:00:57.272Z,3608.00
2019-05-06T10:01:57.820Z,2396.00
2019-05-06T10:02:58.109Z,3028.00
2019-05-06T10:03:57.611Z,3832.00
2019-05-06T10:04:57.316Z,4516.00
2019-05-06T10:05:57.358Z,4448.00
2019-05-06T10:07:00.075Z,4772.00
2019-05-06T10:07:57.636Z,4560.00
2019-05-06T10:08:57.898Z,4928.00
2019-05-06T10:09:57.482Z,5300.00
2019-05-06T10:10:59.889Z,5356.00
2019-05-06T10:11:58.512Z,5360.00
2019-05-06T10:12:57.532Z,3544.00
2019-05-06T10:13:57.507Z,5372.00
2019-05-06T10:14:57.453Z,4112.00
2019-05-06T10:15:57.847Z,3996.00
2019-05-06T10:16:57.471Z,4772.00
2019-05-06T10:17:57.550Z,7036.00
2019-05-06T10:18:57.503Z,7292.00
2019-05-06T10:19:57.579Z,7472.00
2019-05-06T10:20:57.523Z,7532.00
2019-05-06T10:21:57.566Z,7000.00
2019-05-06T10:22:57.574Z,7400.00
2019-05-06T10:23:57.584Z,6312.00
2019-05-06T10:24:57.609Z,6744.00
2019-05-06T10:25:58.588Z,7860.00
2019-05-06T10:26:57.669Z,5396.00
2019-05-06T10:27:58.691Z,5332.00
2019-05-06T10:28:59.174Z,5376.00
2019-05-06T10:29:57.668Z,5560.00
2019-05-06T10:30:57.678Z,5328.00
2019-05-06T10:31:57.951Z,5136.00
2019-05-06T10:32:57.686Z,5052.00
2019-05-06T10:33:57.703Z,5068.00
2019-05-06T10:35:59.333Z,5288.00
2019-05-06T10:37:11.539Z,5524.00
2019-05-06T10:37:57.781Z,5508.00
2019-05-06T10:38:57.869Z,5512.00
2019-05-06T10:39:57.895Z,5836.00
2019-05-06T10:41:03.889Z,4896.00
2019-05-06T10:41:57.831Z,4664.00
2019-05-06T10:42:57.835Z,4548.00
2019-05-06T10:43:58.225Z,4440.00
2019-05-06T10:44:57.869Z,4188.00
2019-05-06T10:46:01.006Z,4024.00
2019-05-06T10:46:58.350Z,4168.00
2019-05-06T10:47:57.917Z,5480.00
2019-05-06T10:49:57.996Z,4084.00
2019-05-06T10:50:57.957Z,4008.00
2019-05-06T10:51:57.961Z,4056.00
2019-05-06T10:52:58.471Z,4212.00
2019-05-06T10:53:57.984Z,6624.00
2019-05-06T10:54:58.094Z,6696.00
2019-05-06T10:55:58.057Z,6496.00
2019-05-06T10:56:58.017Z,6756.00
2019-05-06T10:57:58.036Z,6848.00
2019-05-06T10:58:58.060Z,6704.00
2019-05-06T10:59:58.113Z,6824.00
2019-05-06T11:00:58.369Z,6784.00
2019-05-06T11:01:58.089Z,4788.00
2019-05-06T11:02:58.102Z,4784.00
2019-05-06T11:03:58.120Z,4952.00
2019-05-06T11:04:58.128Z,5132.00
2019-05-06T11:05:58.144Z,5540.00
2019-05-06T11:06:58.166Z,5992.00
2019-05-06T11:07:58.186Z,5144.00
2019-05-06T11:08:58.181Z,5144.00
2019-05-06T11:09:58.200Z,6012.00
2019-05-06T11:11:14.037Z,5356.00
2019-05-06T11:11:58.233Z,5704.00
2019-05-06T11:12:58.306Z,5020.00
2019-05-06T11:13:58.282Z,4888.00
2019-05-06T11:14:58.290Z,4880.00
2019-05-06T11:15:58.295Z,4544.00
2019-05-06T11:16:58.299Z,4452.00
2019-05-06T11:17:58.319Z,4700.00
2019-05-06T11:18:58.418Z,4436.00
2019-05-06T11:19:58.953Z,4496.00
2019-05-06T11:20:58.475Z,4548.00
2019-05-06T11:21:58.398Z,4600.00
2019-05-06T11:22:58.899Z,4568.00
2019-05-06T11:23:58.395Z,4672.00
2019-05-06T11:25:00.127Z,4912.00
2019-05-06T11:25:58.430Z,4696.00
2019-05-06T11:27:03.501Z,4800.00
2019-05-06T11:27:58.809Z,4776.00
2019-05-06T11:28:58.480Z,4944.00
2019-05-06T11:29:59.587Z,5208.00
2019-05-06T11:30:58.674Z,5524.00
2019-05-06T11:33:59.043Z,5608.00
2019-05-06T11:34:59.789Z,5852.00
2019-05-06T11:35:59.553Z,5200.00
2019-05-06T11:36:58.722Z,5316.00
2019-05-06T11:39:00.643Z,4792.00
2019-05-06T11:39:58.848Z,4720.00
2019-05-06T11:41:00.544Z,5308.00
2019-05-06T11:42:22.540Z,4828.00
2019-05-06T11:44:00.139Z,5112.00
2019-05-06T11:44:58.857Z,5300.00
2019-05-06T11:45:58.709Z,5500.00
2019-05-06T11:46:58.846Z,5700.00
2019-05-06T11:47:58.728Z,7096.00
2019-05-06T11:49:58.859Z,6544.00
2019-05-06T11:50:59.555Z,6328.00
2019-05-06T11:51:58.788Z,5904.00
2019-05-06T11:52:58.996Z,5848.00
2019-05-06T11:54:02.715Z,3556.00
2019-05-06T11:54:58.930Z,3296.00
2019-05-06T11:55:58.931Z,3344.00
2019-05-06T11:56:58.860Z,3480.00
2019-05-06T11:57:59.201Z,3676.00
2019-05-06T11:58:59.324Z,3808.00
2019-05-06T11:59:58.924Z,3796.00
2019-05-06T12:00:58.922Z,3800.00
2019-05-06T12:01:58.930Z,3844.00
2019-05-06T12:03:02.235Z,3736.00
2019-05-06T12:03:59.012Z,3548.00
2019-05-06T12:04:59.164Z,3352.00
2019-05-06T12:05:59.007Z,3268.00
2019-05-06T12:07:10.416Z,3292.00
2019-05-06T12:08:04.633Z,3428.00
2019-05-06T12:08:59.348Z,3664.00
2019-05-06T12:09:59.036Z,3868.00
2019-05-06T12:10:59.644Z,4016.00
2019-05-06T12:11:59.132Z,4304.00
2019-05-06T12:12:59.137Z,4804.00
2019-05-06T12:14:02.415Z,5452.00
2019-05-06T12:15:00.213Z,5992.00
2019-05-06T12:15:59.125Z,6348.00
2019-05-06T12:17:02.043Z,6456.00
2019-05-06T12:17:59.252Z,6528.00
2019-05-06T12:19:59.183Z,7332.00
2019-05-06T12:21:10.998Z,6820.00
2019-05-06T12:21:59.335Z,7088.00
2019-05-06T12:22:59.268Z,6328.00
2019-05-06T12:23:59.297Z,7972.00
2019-05-06T12:24:59.757Z,6152.00
2019-05-06T12:25:59.330Z,6068.00
2019-05-06T12:26:59.702Z,5896.00
2019-05-06T12:28:02.875Z,5804.00
2019-05-06T12:29:01.976Z,6140.00
2019-05-06T12:29:59.516Z,5536.00
2019-05-06T12:30:59.336Z,5648.00
2019-05-06T12:32:00.348Z,5776.00
2019-05-06T12:32:59.380Z,5980.00
2019-05-06T12:33:59.394Z,7884.00
2019-05-06T12:34:59.509Z,5864.00
2019-05-06T12:35:59.394Z,5368.00
2019-05-06T12:36:59.412Z,5192.00
2019-05-06T12:37:59.433Z,5292.00
2019-05-06T12:38:59.976Z,5404.00
2019-05-06T12:39:59.609Z,5416.00
2019-05-06T12:41:00.100Z,5408.00
2019-05-06T12:41:59.483Z,5344.00
2019-05-06T12:43:03.755Z,5280.00
2019-05-06T12:43:59.516Z,5228.00
2019-05-06T12:45:03.276Z,5232.00
2019-05-06T12:45:59.548Z,5480.00
2019-05-06T12:47:00.178Z,6164.00
2019-05-06T12:48:59.841Z,8552.00
2019-05-06T12:51:00.012Z,8896.00
2019-05-06T12:52:00.003Z,8892.00
2019-05-06T12:52:59.655Z,7088.00
2019-05-06T12:53:59.690Z,9412.00
2019-05-06T12:55:14.578Z,9904.00
2019-05-06T12:55:59.963Z,8492.00
2019-05-06T12:56:59.757Z,6400.00
2019-05-06T12:57:59.757Z,5948.00
2019-05-06T13:00:03.087Z,7056.00
2019-05-06T13:01:00.035Z,9124.00
2019-05-06T13:03:02.109Z,7144.00
2019-05-06T13:03:59.990Z,5416.00
2019-05-06T13:05:03.232Z,6344.00
2019-05-06T13:06:59.850Z,5844.00
2019-05-06T13:08:04.354Z,6576.00
2019-05-06T13:09:04.134Z,16800.00
2019-05-06T13:11:02.455Z,5924.00
2019-05-06T13:13:00.305Z,7116.00
2019-05-06T13:14:00.774Z,6620.00
2019-05-06T13:14:59.979Z,4732.00
2019-05-06T13:15:59.991Z,4464.00
2019-05-06T13:17:02.396Z,4504.00
2019-05-06T13:18:06.295Z,4640.00
2019-05-06T13:19:00.029Z,5012.00
2019-05-06T13:20:00.241Z,5188.00
2019-05-06T13:21:00.177Z,5508.00
2019-05-06T13:23:00.144Z,7688.00
2019-05-06T13:24:02.382Z,21440.00
2019-05-06T13:25:00.123Z,20832.00
2019-05-06T13:26:02.094Z,10820.00